Latest Weather Observations for Redcliffe

IDQ60801

Issued at 2:35 pm EST Saturday 29 November 2014 (issued every 30 minutes, with the page automatically refreshed every 10 minutes)

About weather observations | Map of weather stations | Latest weather observations for QLD | Other Formats
Station Details ID: 040958 Name: REDCLIFFE Lat: -27.22 Lon: 153.09 Height: 12.6 m
Data from the previous 72 hours. | See also: Recent months at Redcliffe
Date/Time
EST
Temp
°C
App
Temp
°C
Dew
Point
Rel
Hum
%
Delta-T
°C
Wind Press
QNH
hPa
Press
MSL
hPa
Rain
since 9 am
mm
Dir
 
Spd
km/h
Gust
km/h
Spd
kts
Gust
kts
29/02:30pm 24.6 20.0 11.2 43 7.5 E 26 32 14 17 1017.2 1017.1 0.0
29/02:00pm 24.3 19.6 11.9 45 7.0 E 28 33 15 18 1017.5 1017.4 0.0
29/01:30pm 25.1 21.2 13.3 48 6.9 E 26 32 14 17 1017.5 1017.4 0.0
29/01:00pm 25.3 21.5 12.5 45 7.4 ESE 24 32 13 17 1017.7 1017.6 0.0
29/12:30pm 25.0 20.6 11.6 43 7.6 ESE 26 32 14 17 1017.8 1017.7 0.0
29/12:00pm 25.1 21.2 13.3 48 6.9 ESE 26 32 14 17 1018.0 1017.9 0.0
29/11:30am 24.7 20.7 13.0 48 6.8 ESE 26 33 14 18 1018.5 1018.4 0.0
29/11:00am 25.3 21.4 13.2 47 7.0 SE 26 33 14 18 1018.7 1018.6 0.0
29/10:30am 25.8 22.4 13.6 47 7.2 SE 24 30 13 16 1019.0 1018.9 0.0
29/10:00am 24.6 20.6 11.9 45 7.2 SE 24 30 13 16 1019.1 1019.0 0.0
29/09:30am 24.8 20.6 12.4 46 7.1 SE 26 32 14 17 1019.3 1019.2 0.0
29/09:00am 24.9 21.4 13.5 49 6.7 ESE 24 32 13 17 1019.3 1019.2 1.2
29/08:30am 24.6 20.4 13.5 50 6.5 SE 28 32 15 17 1019.2 1019.1 1.2
29/08:00am 24.2 20.4 12.5 48 6.7 SE 24 30 13 16 1019.1 1019.0 1.2
29/07:30am 24.2 20.8 13.7 52 6.1 ESE 24 32 13 17 1019.0 1018.9 1.2
29/07:00am 23.7 19.0 12.0 48 6.6 SE 28 33 15 18 1018.7 1018.6 1.2
29/06:30am 23.5 19.1 12.8 51 6.1 ESE 28 33 15 18 1018.4 1018.3 1.2
29/06:00am 23.3 19.1 13.5 54 5.7 ESE 28 33 15 18 1018.1 1018.0 1.2
29/05:30am 22.9 18.9 14.2 58 5.1 ESE 28 33 15 18 1017.8 1017.7 1.2
29/05:00am 22.4 18.8 15.3 64 4.2 ESE 28 32 15 17 1017.6 1017.5 1.2
29/04:30am 20.3 17.5 17.3 83 1.8 ESE 28 35 15 19 1017.5 1017.4 1.2
29/04:00am 20.3 17.7 17.7 85 1.6 ESE 28 32 15 17 1017.2 1017.1 1.2
29/03:30am 20.6 18.3 17.6 83 1.8 ESE 26 32 14 17 1017.2 1017.1 1.2
29/03:00am 22.4 19.4 16.7 70 3.5 ESE 28 33 15 18 1017.1 1017.0 1.2
29/02:30am 21.7 20.0 17.1 75 2.8 E 22 26 12 14 1017.1 1017.0 1.2
29/02:00am 20.6 17.1 17.8 84 1.7 E 33 44 18 24 1017.4 1017.3 1.2
29/01:30am 20.8 18.6 17.8 83 1.9 E 26 32 14 17 1017.4 1017.3 1.2
29/01:00am 20.2 18.7 17.6 85 1.6 ESE 22 33 12 18 1017.7 1017.6 1.0
29/12:30am 20.6 18.1 17.2 81 2.1 SSE 26 35 14 19 1017.9 1017.8 0.8
29/12:00am 23.0 20.3 15.6 63 4.4 E 24 32 13 17 1018.6 1018.5 0.8
 
Date/Time
EST
Temp
°C
App
Temp
°C
Dew
Point
Rel
Hum
%
Delta-T
°C
Wind Press
QNH
hPa
Press
MSL
hPa
Rain
since 9 am
mm
Dir
 
Spd
km/h
Gust
km/h
Spd
kts
Gust
kts
28/11:30pm 22.8 20.0 15.4 63 4.4 E 24 30 13 16 1018.8 1018.7 0.8
28/11:00pm 22.9 19.3 15.2 62 4.6 E 28 32 15 17 1018.9 1018.8 0.8
28/10:30pm 23.0 19.0 15.3 62 4.6 E 30 33 16 18 1019.2 1019.1 0.8
28/10:00pm 23.1 19.3 15.7 63 4.4 ESE 30 35 16 19 1019.4 1019.3 0.8
28/09:30pm 23.1 18.6 14.9 60 4.9 ESE 32 39 17 21 1019.6 1019.5 0.8
28/09:00pm 23.2 18.9 15.3 61 4.7 ESE 32 39 17 21 1019.3 1019.2 0.8
28/08:30pm 23.3 19.0 15.9 63 4.5 ESE 33 43 18 23 1019.0 1018.9 0.8
28/08:00pm 23.3 19.1 15.6 62 4.6 ESE 32 44 17 24 1019.0 1018.9 0.8
28/07:30pm 23.4 18.2 14.4 57 5.3 ESE 35 43 19 23 1018.8 1018.7 0.8
28/07:00pm 23.3 17.8 14.6 58 5.1 ESE 37 46 20 25 1018.6 1018.5 0.8
28/06:30pm 23.5 18.9 16.1 63 4.5 ESE 35 44 19 24 1018.4 1018.3 0.8
28/06:00pm 23.7 19.1 16.2 63 4.6 SE 35 50 19 27 1018.1 1018.0 0.8
28/05:30pm 23.7 18.7 16.0 62 4.7 SE 37 43 20 23 1017.9 1017.8 0.8
28/05:00pm 24.1 18.8 16.4 62 4.7 SE 39 48 21 26 1017.6 1017.5 0.8
28/04:30pm 24.2 18.9 16.2 61 4.9 SE 39 48 21 26 1017.2 1017.1 0.8
28/04:00pm 24.4 19.0 16.1 60 5.0 SE 39 46 21 25 1017.1 1017.0 0.8
28/03:30pm 24.4 19.3 16.9 63 4.6 SE 39 48 21 26 1017.3 1017.2 0.8
28/03:00pm 24.1 18.4 17.1 65 4.3 SE 43 50 23 27 1017.6 1017.5 0.8
28/02:30pm 23.5 18.0 17.7 70 3.6 SE 43 52 23 28 1017.5 1017.4 0.8
28/02:00pm 24.3 20.0 17.8 67 4.1 ESE 37 43 20 23 1017.7 1017.6 0.8
28/01:30pm 24.5 19.9 18.0 67 4.1 ESE 39 48 21 26 1017.9 1017.8 0.8
28/01:00pm 23.9 19.5 17.6 68 3.9 ESE 37 43 20 23 1018.0 1017.9 0.6
28/12:30pm 24.7 20.4 17.7 65 4.4 ESE 37 43 20 23 1017.9 1017.8 0.6
28/12:00pm 22.7 18.2 17.4 72 3.3 ESE 37 46 20 25 1018.3 1018.2 0.6
28/11:30am 24.8 21.0 18.0 66 4.3 ESE 35 41 19 22 1018.6 1018.5 0.4
28/11:00am 23.4 21.2 19.5 79 2.5 E 30 37 16 20 1018.8 1018.7 0.4
28/10:30am 24.0 21.7 19.3 75 3.0 ESE 30 33 16 18 1018.8 1018.7 0.4
28/10:00am 23.2 21.8 18.9 77 2.7 ESE 24 33 13 18 1018.7 1018.6 0.4
28/09:30am 23.9 24.5 19.4 76 2.9 ENE 15 24 8 13 1018.7 1018.6 0.0
28/09:00am 22.5 23.5 19.5 83 1.9 ESE 13 17 7 9 1018.7 1018.6 18.6
28/08:30am 20.8 20.9 18.4 86 1.5 E 15 20 8 11 1019.1 1019.0 18.6
28/08:00am 22.6 21.3 18.2 76 2.7 ESE 22 32 12 17 1018.7 1018.6 15.8
28/07:30am 22.6 20.0 17.7 74 3.0 ESE 28 32 15 17 1018.7 1018.6 15.8
28/07:00am 22.1 19.7 18.3 79 2.4 SE 28 33 15 18 1018.4 1018.3 15.8
28/06:30am 22.2 18.5 18.4 79 2.4 SE 35 44 19 24 1017.8 1017.7 15.8
28/06:00am 22.5 19.4 18.9 80 2.3 SE 33 39 18 21 1017.5 1017.4 15.8
28/05:55am 22.3 19.4 19.3 83 1.9 SE 33 35 18 19 1017.6 1017.5 15.8
28/05:30am 21.7 17.7 18.5 82 2.0 S 37 43 20 23 1017.4 1017.3 15.8
28/05:00am 21.8 18.2 18.6 82 2.0 S 35 43 19 23 1017.2 1017.1 15.8
28/04:30am 21.6 18.1 18.0 80 2.2 S 33 41 18 22 1016.9 1016.8 15.8
28/04:00am 21.7 17.7 17.7 78 2.5 S 35 44 19 24 1016.6 1016.5 15.8
28/03:30am 21.8 17.6 18.0 79 2.4 S 37 44 20 24 1016.3 1016.2 15.8
28/03:00am 21.9 18.5 18.1 79 2.4 S 33 37 18 20 1016.2 1016.1 15.8
28/02:30am 22.0 18.2 18.2 79 2.4 S 35 39 19 21 1016.2 1016.1 15.8
28/02:00am 22.2 18.8 18.2 78 2.5 S 33 37 18 20 1016.1 1016.0 15.8
28/01:30am 22.4 19.6 18.2 77 2.6 S 30 37 16 20 1016.2 1016.1 15.8
28/01:00am 22.6 20.0 17.9 75 2.9 S 28 33 15 18 1016.3 1016.2 15.8
28/12:30am 22.9 20.1 19.1 79 2.4 SSE 32 37 17 20 1016.6 1016.5 15.8
28/12:00am 23.2 20.9 19.4 79 2.4 S 30 33 16 18 1016.8 1016.7 15.8
 
Date/Time
EST
Temp
°C
App
Temp
°C
Dew
Point
Rel
Hum
%
Delta-T
°C
Wind Press
QNH
hPa
Press
MSL
hPa
Rain
since 9 am
mm
Dir
 
Spd
km/h
Gust
km/h
Spd
kts
Gust
kts
27/11:30pm 23.4 21.4 19.1 77 2.7 SE 28 30 15 16 1017.1 1017.0 15.8
27/11:00pm 23.3 21.6 19.7 80 2.3 SE 28 35 15 19 1017.2 1017.1 15.8
27/10:30pm 23.5 20.8 19.2 77 2.7 SE 32 37 17 20 1017.2 1017.1 15.8
27/10:00pm 23.4 20.4 19.1 77 2.7 SE 33 41 18 22 1017.5 1017.4 15.8
27/09:30pm 23.6 20.2 19.1 76 2.9 SSE 35 41 19 22 1017.4 1017.3 15.8
27/09:00pm 23.9 20.4 20.4 81 2.3 SSE 39 44 21 24 1016.7 1016.6 15.8
27/08:30pm 24.1 23.5 20.6 81 2.3 SE 24 28 13 15 1016.6 1016.5 15.8
27/08:00pm 24.0 23.7 21.1 84 1.9 ESE 24 30 13 16 1016.3 1016.2 15.8
27/07:30pm 23.7 24.1 21.0 85 1.8 ESE 20 28 11 15 1016.6 1016.5 15.0
27/07:00pm 21.9 22.5 20.2 90 1.1 ESE 17 20 9 11 1016.4 1016.3 14.8
27/06:30pm 21.7 23.7 20.0 90 1.1 NW 9 11 5 6 1015.7 1015.6 14.8
27/06:00pm 20.9 21.4 19.2 90 1.1 WSW 15 19 8 10 1016.2 1016.1 14.6
27/05:30pm 20.7 20.5 18.5 87 1.4 WSW 17 28 9 15 1015.8 1015.7 12.0
27/05:23pm 21.0 20.8 17.6 81 2.1 S 15 24 8 13 1015.7 1015.6 8.6
27/05:14pm 26.0 25.5 18.7 64 4.7 E 19 26 10 14 1015.8 1015.7 0.0
27/05:00pm 26.0 23.3 18.4 63 4.8 NE 30 33 16 18 1013.6 1013.5 0.0
27/04:30pm 26.5 23.8 18.4 61 5.2 NE 30 33 16 18 1013.2 1013.1 0.0
27/04:00pm 27.2 24.1 18.8 60 5.4 NNE 33 37 18 20 1012.7 1012.6 0.0
27/03:30pm 27.3 23.9 19.1 61 5.3 NNE 35 39 19 21 1012.5 1012.4 0.0
27/03:00pm 28.5 25.4 18.9 56 6.2 NE 33 37 18 20 1012.7 1012.6 0.0
27/02:30pm 29.1 26.0 16.6 46 7.8 NNE 28 30 15 16 1013.1 1013.0 0.0
27/02:00pm 28.6 25.4 16.2 47 7.7 NNE 28 32 15 17 1013.5 1013.4 0.0
27/01:30pm 28.6 25.2 15.8 45 7.9 NNE 28 30 15 16 1013.9 1013.8 0.0
27/01:00pm 27.9 25.3 16.8 50 6.9 NE 26 32 14 17 1014.1 1014.0 0.0
27/12:30pm 27.9 25.5 18.3 56 6.1 NE 28 30 15 16 1014.4 1014.3 0.0
27/12:00pm 28.0 25.5 17.2 52 6.8 ENE 26 30 14 16 1014.6 1014.5 0.0
27/11:30am 28.1 26.9 19.3 58 5.7 ENE 24 28 13 15 1015.0 1014.9 0.0
27/11:00am 27.8 27.0 17.9 54 6.3 ENE 19 22 10 12 1015.4 1015.3 0.0
27/10:30am 28.6 29.0 19.0 56 6.2 ENE 15 17 8 9 1015.7 1015.6 0.0
27/10:00am 27.7 27.5 17.5 53 6.4 NE 15 17 8 9 1016.0 1015.9 0.0
27/09:30am 27.7 27.2 16.9 51 6.7 NE 15 19 8 10 1016.2 1016.1 0.0
27/09:00am 26.3 26.1 16.8 56 5.9 NNE 13 17 7 9 1016.5 1016.4 0.2
27/08:30am 26.4 26.6 17.7 58 5.5 N 13 19 7 10 1016.8 1016.7 0.2
27/08:00am 25.8 26.8 18.7 65 4.5 N 11 17 6 9 1016.8 1016.7 0.2
27/07:30am 25.2 26.0 18.2 65 4.4 NNW 11 17 6 9 1016.8 1016.7 0.2
27/07:00am 25.0 25.7 18.0 65 4.4 NW 11 13 6 7 1016.6 1016.5 0.2
27/06:30am 24.2 25.6 18.6 71 3.5 NW 9 13 5 7 1016.4 1016.3 0.2
27/06:00am 23.6 25.7 19.3 77 2.7 NW 7 11 4 6 1016.1 1016.0 0.2
27/05:30am 22.9 24.6 19.3 80 2.3 WNW 9 11 5 6 1015.9 1015.8 0.2
27/05:00am 22.5 24.3 19.5 83 1.9 WNW 9 13 5 7 1015.7 1015.6 0.2
27/04:30am 22.4 24.3 19.8 85 1.7 NW 9 11 5 6 1015.5 1015.4 0.2
27/04:00am 22.4 24.5 19.4 83 1.9 WNW 7 9 4 5 1015.3 1015.2 0.2
27/03:30am 22.3 24.1 19.5 84 1.8 W 9 13 5 7 1015.1 1015.0 0.2
27/03:00am 22.8 24.1 19.4 81 2.2 WNW 11 13 6 7 1015.2 1015.1 0.0
27/02:30am 22.9 24.6 19.3 80 2.3 NW 9 13 5 7 1015.2 1015.1 0.0
27/02:00am 23.8 25.3 19.7 78 2.6 N 11 17 6 9 1015.1 1015.0 0.0
27/01:30am 24.0 25.0 19.5 76 2.9 N 13 19 7 10 1015.4 1015.3 0.0
27/01:00am 24.1 24.4 19.6 76 2.9 N 17 19 9 10 1015.3 1015.2 0.0
27/12:30am 24.1 24.3 19.4 75 3.0 N 17 20 9 11 1015.4 1015.3 0.0
27/12:00am 24.2 23.1 19.5 75 3.0 N 24 26 13 14 1015.8 1015.7 0.0
 
Date/Time
EST
Temp
°C
App
Temp
°C
Dew
Point
Rel
Hum
%
Delta-T
°C
Wind Press
QNH
hPa
Press
MSL
hPa
Rain
since 9 am
mm
Dir
 
Spd
km/h
Gust
km/h
Spd
kts
Gust
kts
26/11:30pm 24.2 24.4 19.3 74 3.1 N 17 24 9 13 1016.3 1016.2 0.0
26/11:00pm 24.3 24.4 19.1 73 3.3 N 17 19 9 10 1016.5 1016.4 0.0
26/10:30pm 24.4 25.2 19.0 72 3.4 N 13 19 7 10 1017.0 1016.9 0.0
26/10:00pm 24.5 25.7 19.1 72 3.4 N 11 17 6 9 1017.2 1017.1 0.0
26/09:30pm 24.6 26.2 19.2 72 3.5 N 9 11 5 6 1017.6 1017.5 0.0
26/09:00pm 24.7 26.2 18.9 70 3.7 N 9 11 5 6 1017.6 1017.5 0.0
26/08:30pm 24.8 26.0 19.0 70 3.7 NNE 11 13 6 7 1017.5 1017.4 0.0
26/08:00pm 24.8 25.6 19.0 70 3.7 NNE 13 17 7 9 1017.3 1017.2 0.0
26/07:30pm 24.8 25.2 19.0 70 3.7 NE 15 19 8 10 1017.2 1017.1 0.0
26/07:00pm 24.8 25.2 19.0 70 3.7 NE 15 19 8 10 1016.9 1016.8 0.0
26/06:30pm 24.9 24.8 18.8 69 3.9 NE 17 20 9 11 1016.6 1016.5 0.0
26/06:00pm 25.1 24.3 18.5 67 4.2 NNE 20 26 11 14 1016.4 1016.3 0.0
26/05:30pm 25.3 23.6 18.0 64 4.6 NNE 24 28 13 15 1016.0 1015.9 0.0
26/05:00pm 25.5 24.1 17.9 63 4.8 NNE 22 28 12 15 1015.5 1015.4 0.0
26/04:30pm 25.6 24.0 18.3 64 4.6 NE 24 28 13 15 1015.1 1015.0 0.0
26/04:00pm 25.7 24.0 18.1 63 4.8 NE 24 30 13 16 1015.1 1015.0 0.0
26/03:30pm 26.9 25.4 19.5 64 4.8 NNE 26 32 14 17 1014.9 1014.8 0.0
26/03:00pm 26.1 23.8 18.5 63 4.8 NE 28 32 15 17 1014.9 1014.8 0.0

Other Formats:

Comma delimited format used in spreadsheet applications
http://www.bom.gov.au/fwo/IDQ60801/IDQ60801.95591.axf

JavaScript Object Notation format (JSON) in row-major order
http://www.bom.gov.au/fwo/IDQ60801/IDQ60801.95591.json